Time;durP1;ratioP1;P1;durP2;ratioP2;P2;SDS_P1;SDS_P2;PMS_P1;PMS_P2;Temp;Humidity;BMP_temperature;BMP_pressure;BME280_temperature;BME280_humidity;BME280_pressure;Samples;Min_cycle;Max_cycle;Signal;HPM_P1;HPM_P2
2022/10/08 00:02:14;;;;;;;7.80;3.53;;;12.50;99.90;;;;;;5028830;28;20053;-80
2022/10/08 00:04:40;;;;;;;6.88;2.67;;;12.50;99.90;;;;;;5047687;28;20384;-82
2022/10/08 00:07:06;;;;;;;10.70;1.98;;;12.40;99.90;;;;;;5047973;28;20060;-83
2022/10/08 00:09:32;;;;;;;13.10;4.15;;;12.50;99.90;;;;;;5045945;28;20044;-79
2022/10/08 00:11:57;;;;;;;8.70;2.92;;;12.40;99.90;;;;;;5047678;28;20122;-80
2022/10/08 00:14:23;;;;;;;6.70;1.65;;;12.70;99.90;;;;;;5043092;28;20037;-81
2022/10/08 00:16:49;;;;;;;8.00;1.67;;;12.60;99.90;;;;;;5045931;28;20047;-81
2022/10/08 00:19:15;;;;;;;8.55;1.80;;;12.70;99.90;;;;;;5045756;28;20499;-82
2022/10/08 00:21:43;;;;;;;7.15;1.83;;;12.60;99.90;;;;;;5049088;28;20406;-82
2022/10/08 00:24:13;;;;;;;5.10;1.42;;;12.40;99.90;;;;;;5043185;28;20099;-78
2022/10/08 00:26:38;;;;;;;;;;;12.30;99.90;;;;;;5048408;28;20048;-82
2022/10/08 00:29:06;;;;;;;7.68;1.75;;;12.50;99.90;;;;;;5045553;28;19921;-81
2022/10/08 00:31:37;;;;;;;6.50;1.75;;;12.40;99.90;;;;;;5048949;28;20125;-81
2022/10/08 00:34:07;;;;;;;5.25;1.40;;;12.40;99.90;;;;;;5045859;28;20562;-81
2022/10/08 00:36:36;;;;;;;7.85;1.42;;;12.40;99.90;;;;;;5046861;28;20045;-78
2022/10/08 00:39:04;;;;;;;5.72;0.90;;;12.50;99.90;;;;;;5045212;28;20037;-80
2022/10/08 00:41:34;;;;;;;7.13;1.23;;;12.30;99.90;;;;;;5046887;28;20044;-81
2022/10/08 00:44:03;;;;;;;3.67;1.23;;;12.60;99.90;;;;;;5045884;28;20080;-81
2022/10/08 00:46:55;;;;;;;7.22;1.42;;;12.40;99.90;;;;;;5045306;28;20125;-80
2022/10/08 00:49:21;;;;;;;5.60;1.30;;;12.40;99.90;;;;;;5041112;28;20052;-81
2022/10/08 00:51:55;;;;;;;13.45;2.90;;;12.20;99.90;;;;;;5047305;28;20426;-81
2022/10/08 00:54:22;;;;;;;7.57;1.95;;;12.30;99.90;;;;;;5045856;28;20680;-81
2022/10/08 00:56:52;;;;;;;4.97;1.42;;;12.40;99.90;;;;;;5039392;28;20128;-80
2022/10/08 00:59:18;;;;;;;;;;;12.20;99.90;;;;;;5044267;28;20063;-81
2022/10/08 01:01:44;;;;;;;5.78;1.38;;;12.40;99.90;;;;;;5029553;28;20391;-81
2022/10/08 01:04:12;;;;;;;4.30;1.20;;;12.20;99.90;;;;;;5046299;28;20082;-81
2022/10/08 01:07:07;;;;;;;4.65;1.15;;;12.60;99.90;;;;;;5045874;28;20065;-80
2022/10/08 01:09:53;;;;;;;3.67;1.52;;;12.40;99.90;;;;;;5047144;28;20120;-81
2022/10/08 01:12:27;;;;;;;5.50;1.13;;;12.60;99.90;;;;;;5047467;28;20084;-81
2022/10/08 01:15:22;;;;;;;4.38;1.30;;;12.60;99.90;;;;;;5013683;28;20040;-79
2022/10/08 01:18:15;;;;;;;10.00;1.20;;;12.70;99.90;;;;;;4999034;28;20051;-82
2022/10/08 01:20:49;;;;;;;4.68;0.82;;;12.60;99.90;;;;;;5014720;28;20437;-81
2022/10/08 01:23:36;;;;;;;7.45;1.35;;;12.70;99.90;;;;;;5030043;28;20453;-80
2022/10/08 01:26:17;;;;;;;6.32;1.73;;;12.20;99.90;;;;;;5045793;28;20069;-82
2022/10/08 01:28:55;;;;;;;5.63;2.50;;;12.20;99.90;;;;;;5048112;28;20045;-80
2022/10/08 01:31:30;;;;;;;7.20;0.90;;;12.20;99.90;;;;;;5028254;28;20045;-79
2022/10/08 01:34:06;;;;;;;7.45;1.48;;;12.40;99.90;;;;;;4993037;28;20081;-81
2022/10/08 01:36:39;;;;;;;3.42;0.88;;;12.00;99.90;;;;;;5050935;28;20088;-81
2022/10/08 01:39:10;;;;;;;2.10;1.13;;;12.10;99.90;;;;;;5049374;28;20164;-82
2022/10/08 01:41:39;;;;;;;7.53;1.67;;;12.40;99.90;;;;;;5033055;28;20075;-81
2022/10/08 01:44:22;;;;;;;5.18;1.85;;;12.50;99.90;;;;;;5044267;28;20364;-80
2022/10/08 01:46:50;;;;;;;8.75;1.80;;;11.90;99.90;;;;;;5046656;28;20044;-79
2022/10/08 01:49:21;;;;;;;8.07;1.85;;;12.10;99.90;;;;;;5031922;28;20045;-80
2022/10/08 01:51:59;;;;;;;7.10;1.70;;;11.90;99.90;;;;;;5051490;28;20037;-82
2022/10/08 01:54:27;;;;;;;5.65;1.42;;;12.10;99.90;;;;;;5036597;28;20044;-80
2022/10/08 01:56:55;;;;;;;6.38;1.30;;;12.10;99.90;;;;;;5058648;28;20049;-80
2022/10/08 01:59:26;;;;;;;6.68;1.73;;;12.30;99.90;;;;;;5047634;28;20045;-78
2022/10/08 02:02:00;;;;;;;4.75;1.30;;;12.20;99.90;;;;;;5047940;28;20045;-81
2022/10/08 02:04:32;;;;;;;5.72;1.25;;;11.90;99.90;;;;;;5031151;28;20041;-80
2022/10/08 02:07:10;;;;;;;8.07;1.38;;;12.30;99.90;;;;;;5031917;28;20049;-80
2022/10/08 02:09:50;;;;;;;10.18;1.80;;;12.10;99.90;;;;;;5051051;28;20036;-77
2022/10/08 02:12:16;;;;;;;7.10;1.50;;;11.70;99.90;;;;;;5051896;28;20404;-78
2022/10/08 02:14:47;;;;;;;14.63;2.50;;;12.10;99.90;;;;;;5047179;28;20037;-81
2022/10/08 02:17:42;;;;;;;5.40;1.42;;;11.80;99.90;;;;;;5040480;28;20068;-80
2022/10/08 02:20:38;;;;;;;8.32;2.30;;;11.80;99.90;;;;;;5050258;28;20045;-81
2022/10/08 02:23:18;;;;;;;6.88;1.80;;;11.60;99.90;;;;;;5050017;28;20120;-79
2022/10/08 02:26:00;;;;;;;5.38;2.17;;;12.10;99.90;;;;;;5032879;28;20056;-80
2022/10/08 02:28:32;;;;;;;7.53;1.77;;;11.60;99.90;;;;;;5030719;28;20052;-81
2022/10/08 02:31:04;;;;;;;9.93;2.22;;;11.90;99.90;;;;;;5050230;28;20045;-80
2022/10/08 02:33:35;;;;;;;3.97;1.55;;;11.90;99.90;;;;;;5049337;28;20136;-81
2022/10/08 02:36:04;;;;;;;6.50;2.08;;;12.00;99.90;;;;;;5022475;28;20045;-83
2022/10/08 02:38:35;;;;;;;6.10;1.75;;;11.60;99.90;;;;;;5029419;28;20048;-80
2022/10/08 02:41:03;;;;;;;4.18;1.63;;;11.80;99.90;;;;;;5048548;28;20033;-80
2022/10/08 02:43:32;;;;;;;12.32;3.65;;;11.50;99.90;;;;;;5049305;28;20395;-81
2022/10/08 02:46:09;;;;;;;6.85;1.95;;;11.80;99.90;;;;;;5044342;28;20045;-80
2022/10/08 02:48:36;;;;;;;12.65;2.17;;;11.50;99.90;;;;;;5043684;28;20182;-81
2022/10/08 02:51:10;;;;;;;6.20;2.40;;;11.90;99.90;;;;;;5046426;28;20053;-81
2022/10/08 02:53:39;;;;;;;4.60;1.70;;;11.70;99.90;;;;;;5050049;28;20068;-81
2022/10/08 02:56:16;;;;;;;11.70;2.80;;;11.90;99.90;;;;;;5049466;28;20048;-81
2022/10/08 02:58:43;;;;;;;10.45;2.35;;;11.90;99.90;;;;;;5050875;28;20080;-82
2022/10/08 03:01:18;;;;;;;10.85;2.80;;;11.60;99.90;;;;;;5049506;28;20045;-80
2022/10/08 03:03:53;;;;;;;16.70;3.75;;;11.60;99.90;;;;;;5039110;28;20174;-77
2022/10/08 03:06:20;;;;;;;5.88;2.83;;;11.70;99.90;;;;;;5048680;28;20703;-81
2022/10/08 03:08:48;;;;;;;11.93;3.38;;;11.70;99.90;;;;;;5047660;28;20380;-81
2022/10/08 03:11:15;;;;;;;10.68;2.75;;;11.90;99.90;;;;;;5049428;28;20079;-79
2022/10/08 03:13:48;;;;;;;9.38;2.22;;;11.70;99.90;;;;;;5050489;28;20121;-80
2022/10/08 03:16:20;;;;;;;15.05;3.35;;;12.10;99.90;;;;;;5036816;28;20556;-81
2022/10/08 03:18:47;;;;;;;12.48;2.97;;;12.10;99.90;;;;;;5032443;28;20037;-80
2022/10/08 03:21:14;;;;;;;8.13;2.92;;;12.00;99.90;;;;;;5032365;28;20041;-82
2022/10/08 03:23:40;;;;;;;15.30;3.17;;;11.70;99.90;;;;;;5039874;28;20045;-81
2022/10/08 03:26:06;;;;;;;8.82;2.42;;;11.70;99.90;;;;;;5049961;28;20656;-81
2022/10/08 03:28:31;;;;;;;8.32;2.22;;;11.80;99.90;;;;;;5030988;28;20049;-81
2022/10/08 03:30:57;;;;;;;15.60;2.55;;;11.70;99.90;;;;;;5049401;28;20044;-81
2022/10/08 03:33:23;;;;;;;15.43;3.05;;;11.80;99.90;;;;;;5047532;28;20534;-82
2022/10/08 03:35:48;;;;;;;10.40;3.63;;;11.90;99.90;;;;;;5045529;28;20498;-79
2022/10/08 03:38:15;;;;;;;10.23;2.20;;;11.60;99.90;;;;;;5048749;28;20041;-79
2022/10/08 03:40:42;;;;;;;8.60;2.13;;;12.00;99.90;;;;;;5046276;28;20430;-79
2022/10/08 03:43:07;;;;;;;8.20;1.90;;;11.90;99.90;;;;;;5048451;28;20048;-79
2022/10/08 03:45:33;;;;;;;16.63;3.15;;;11.60;99.90;;;;;;5047672;28;20037;-79
2022/10/08 03:47:59;;;;;;;11.77;2.58;;;11.50;99.90;;;;;;5010205;28;20037;-81
2022/10/08 03:50:25;;;;;;;14.38;2.95;;;11.50;99.90;;;;;;5016709;28;20038;-82
2022/10/08 03:52:50;;;;;;;11.00;1.67;;;11.40;99.90;;;;;;5022917;28;20438;-81
2022/10/08 03:55:16;;;;;;;12.60;2.88;;;11.70;99.90;;;;;;5038306;28;20044;-80
2022/10/08 03:57:41;;;;;;;10.10;2.00;;;11.50;99.90;;;;;;5045558;28;20049;-80
2022/10/08 04:00:08;;;;;;;14.40;2.78;;;11.50;99.90;;;;;;5046912;28;20044;-81
2022/10/08 04:02:33;;;;;;;8.82;1.45;;;11.30;99.90;;;;;;5045757;28;20471;-81
2022/10/08 04:04:59;;;;;;;11.27;1.95;;;11.40;99.90;;;;;;5035609;28;20099;-79
2022/10/08 04:07:25;;;;;;;7.75;1.88;;;11.30;99.90;;;;;;5044872;28;20412;-79
2022/10/08 04:09:51;;;;;;;13.98;2.05;;;11.40;99.90;;;;;;5045039;28;20041;-79
2022/10/08 04:12:16;;;;;;;10.73;2.45;;;11.30;99.90;;;;;;5049218;28;20051;-81
2022/10/08 04:14:42;;;;;;;11.50;2.97;;;11.00;99.90;;;;;;5048421;28;20461;-80
2022/10/08 04:17:08;;;;;;;13.38;2.55;;;11.30;99.90;;;;;;5045349;28;20037;-80
2022/10/08 04:19:34;;;;;;;11.18;2.38;;;11.10;99.90;;;;;;5046777;28;20380;-81
2022/10/08 04:21:59;;;;;;;10.63;2.15;;;11.10;99.90;;;;;;5049026;28;20081;-81
2022/10/08 04:24:25;;;;;;;15.25;3.25;;;11.10;99.90;;;;;;5047629;28;20384;-80
2022/10/08 04:26:50;;;;;;;10.80;2.40;;;11.00;99.90;;;;;;5031041;28;20088;-80
2022/10/08 04:29:16;;;;;;;16.08;2.90;;;11.00;99.90;;;;;;5029487;28;20049;-81
2022/10/08 04:31:42;;;;;;;16.65;3.25;;;11.10;99.90;;;;;;5041694;28;20033;-81
2022/10/08 04:34:09;;;;;;;11.63;3.03;;;10.90;99.90;;;;;;5029931;28;20505;-81
2022/10/08 04:36:35;;;;;;;14.48;2.80;;;11.00;99.90;;;;;;5048932;28;20072;-82
2022/10/08 04:39:00;;;;;;;10.40;3.47;;;11.10;99.90;;;;;;5047051;28;20697;-80
2022/10/08 04:41:26;;;;;;;7.78;2.72;;;11.00;99.90;;;;;;5026573;28;20041;-79
2022/10/08 04:43:53;;;;;;;10.63;2.60;;;10.80;99.90;;;;;;5031358;28;20038;-77
2022/10/08 04:46:22;;;;;;;10.25;2.25;;;10.70;99.90;;;;;;5032741;28;20061;-79
2022/10/08 04:48:53;;;;;;;12.27;2.97;;;10.90;99.90;;;;;;5051073;28;20048;-80
2022/10/08 04:51:21;;;;;;;10.02;2.75;;;10.70;99.90;;;;;;5047849;28;20493;-81
2022/10/08 04:53:47;;;;;;;11.63;3.05;;;11.10;99.90;;;;;;5045948;28;20124;-80
2022/10/08 04:56:15;;;;;;;12.15;2.53;;;10.70;99.90;;;;;;5047026;28;20133;-79
2022/10/08 04:58:41;;;;;;;15.77;2.92;;;10.90;99.90;;;;;;5011518;28;20048;-79
2022/10/08 05:01:09;;;;;;;12.05;3.35;;;10.60;99.90;;;;;;5045753;28;20071;-81
2022/10/08 05:03:40;;;;;;;15.50;4.13;;;10.80;99.90;;;;;;5047864;28;20087;-81
2022/10/08 05:06:06;;;;;;;15.55;2.70;;;10.80;99.90;;;;;;5045651;28;20055;-81
2022/10/08 05:08:33;;;;;;;17.27;3.58;;;11.00;99.90;;;;;;5045912;28;20037;-77
2022/10/08 05:10:59;;;;;;;10.50;2.60;;;10.60;99.90;;;;;;5047165;28;21773;-82
2022/10/08 05:13:25;;;;;;;6.07;1.60;;;10.60;99.90;;;;;;5050680;28;20049;-81
2022/10/08 05:15:51;;;;;;;16.00;2.55;;;10.80;99.90;;;;;;5034117;28;20037;-83
2022/10/08 05:18:17;;;;;;;15.45;2.88;;;10.70;99.90;;;;;;5051576;28;20594;-81
2022/10/08 05:20:42;;;;;;;10.27;2.95;;;10.80;99.90;;;;;;5052938;28;20098;-80
2022/10/08 05:23:08;;;;;;;13.05;2.10;;;10.70;99.90;;;;;;5052282;28;20049;-80
2022/10/08 05:25:34;;;;;;;14.73;3.08;;;10.60;99.90;;;;;;5016817;28;20051;-81
2022/10/08 05:28:01;;;;;;;11.25;1.92;;;10.40;99.90;;;;;;5052230;28;20391;-80
2022/10/08 05:30:27;;;;;;;14.15;3.35;;;10.70;99.90;;;;;;5050844;28;20041;-81
2022/10/08 05:32:52;;;;;;;9.13;2.58;;;10.50;99.90;;;;;;5050604;28;20052;-80
2022/10/08 05:35:18;;;;;;;14.10;2.88;;;10.70;99.90;;;;;;5046776;28;20037;-80
2022/10/08 05:37:44;;;;;;;10.88;3.00;;;10.70;99.90;;;;;;5042218;28;20491;-80
2022/10/08 05:40:10;;;;;;;21.20;4.68;;;10.40;99.90;;;;;;5027108;28;20039;-80
2022/10/08 05:42:36;;;;;;;13.40;2.38;;;10.40;99.90;;;;;;5051294;28;20130;-80
2022/10/08 05:45:01;;;;;;;15.20;4.50;;;10.60;99.90;;;;;;5043280;28;20506;-81
2022/10/08 05:47:27;;;;;;;8.40;2.67;;;10.60;99.90;;;;;;5029817;28;20057;-80
2022/10/08 05:49:53;;;;;;;11.20;2.40;;;10.30;99.90;;;;;;5048767;28;20128;-81
2022/10/08 05:52:18;;;;;;;14.95;3.50;;;10.40;99.90;;;;;;5051583;28;20048;-81
2022/10/08 05:54:44;;;;;;;21.60;3.63;;;10.50;99.90;;;;;;5048806;28;20068;-81
2022/10/08 05:57:09;;;;;;;18.50;3.47;;;10.50;99.90;;;;;;5051106;28;20098;-82
2022/10/08 05:59:35;;;;;;;14.68;2.95;;;10.40;99.90;;;;;;5042477;28;20079;-81
2022/10/08 06:02:01;;;;;;;14.55;3.33;;;10.50;99.90;;;;;;5046781;28;20067;-79
2022/10/08 06:04:26;;;;;;;16.40;2.55;;;10.50;99.90;;;;;;5049746;28;20056;-76
2022/10/08 06:06:52;;;;;;;10.90;3.42;;;10.50;99.90;;;;;;5048674;28;20080;-79
2022/10/08 06:09:19;;;;;;;16.45;2.53;;;10.10;99.90;;;;;;5050437;28;20041;-81
2022/10/08 06:11:46;;;;;;;12.85;3.53;;;10.30;99.90;;;;;;5049170;28;20037;-80
2022/10/08 06:14:15;;;;;;;11.55;2.88;;;10.20;99.90;;;;;;5049116;28;20060;-88
2022/10/08 06:16:41;;;;;;;16.70;3.60;;;10.30;99.90;;;;;;5030719;28;20037;-79
2022/10/08 06:19:07;;;;;;;20.63;4.68;;;10.20;99.90;;;;;;5014521;28;20052;-81
2022/10/08 06:21:34;;;;;;;17.40;3.85;;;10.30;99.90;;;;;;5012663;28;20434;-82
2022/10/08 06:24:03;;;;;;;10.35;2.58;;;10.20;99.90;;;;;;5027819;28;20578;-80
2022/10/08 06:26:37;;;;;;;7.47;2.90;;;10.30;99.90;;;;;;5048917;28;20049;-80
2022/10/08 06:29:05;;;;;;;12.38;3.97;;;10.60;99.90;;;;;;5026721;28;20076;-79
2022/10/08 06:31:30;;;;;;;10.55;2.25;;;10.60;99.90;;;;;;5046684;28;20029;-77
2022/10/08 06:33:57;;;;;;;19.70;4.95;;;10.70;99.90;;;;;;5049593;28;20064;-79
2022/10/08 06:36:27;;;;;;;14.38;2.58;;;10.90;99.90;;;;;;5048033;28;20049;-79
2022/10/08 06:38:55;;;;;;;19.02;4.25;;;10.80;99.90;;;;;;5045004;28;20092;-80
2022/10/08 06:41:22;;;;;;;11.05;3.42;;;10.80;99.90;;;;;;5047771;28;20068;-77
2022/10/08 06:43:47;;;;;;;12.68;2.20;;;10.90;99.90;;;;;;5028704;28;20037;-81
2022/10/08 06:46:14;;;;;;;14.93;3.72;;;11.00;99.90;;;;;;5048440;28;20037;-79
2022/10/08 06:48:40;;;;;;;10.50;2.58;;;11.00;99.90;;;;;;5047906;28;20028;-79
2022/10/08 06:51:11;;;;;;;11.95;3.08;;;11.10;99.90;;;;;;5030982;28;20120;-78
2022/10/08 06:53:37;;;;;;;12.40;3.35;;;10.70;99.90;;;;;;5031477;28;20052;-77
2022/10/08 06:56:05;;;;;;;17.98;4.45;;;10.70;99.90;;;;;;5049447;28;20040;-79
2022/10/08 06:58:34;;;;;;;12.02;2.92;;;10.80;99.90;;;;;;5049807;28;20470;-79
2022/10/08 07:01:08;;;;;;;10.38;2.63;;;10.90;99.90;;;;;;5047763;28;20033;-77
2022/10/08 07:03:34;;;;;;;11.18;2.35;;;11.10;99.90;;;;;;5030416;28;20045;-78
2022/10/08 07:06:06;;;;;;;10.00;2.45;;;10.90;99.90;;;;;;5046985;28;20052;-79
2022/10/08 07:08:32;;;;;;;9.52;2.13;;;11.30;99.90;;;;;;5044476;28;20081;-78
2022/10/08 07:11:06;;;;;;;18.02;3.20;;;11.40;99.90;;;;;;5011183;28;20132;-78
2022/10/08 07:13:32;;;;;;;5.78;1.30;;;11.30;99.90;;;;;;5046745;28;20095;-77
2022/10/08 07:16:03;;;;;;;20.05;3.30;;;11.20;99.90;;;;;;5047295;28;20087;-78
2022/10/08 07:18:30;;;;;;;7.45;2.40;;;11.10;99.90;;;;;;5028350;28;20049;-79
2022/10/08 07:20:57;;;;;;;12.25;2.72;;;11.50;99.90;;;;;;5029210;28;20138;-76
2022/10/08 07:23:23;;;;;;;9.48;2.63;;;11.60;99.90;;;;;;5029016;28;20136;-77
2022/10/08 07:25:58;;;;;;;11.55;2.50;;;11.30;99.90;;;;;;5045479;28;20112;-79
2022/10/08 07:28:25;;;;;;;10.68;2.63;;;11.40;99.90;;;;;;5049300;28;20045;-80
2022/10/08 07:30:51;;;;;;;9.73;1.83;;;11.80;99.90;;;;;;5030444;28;20040;-80
2022/10/08 07:33:16;;;;;;;12.45;2.00;;;11.80;99.90;;;;;;5049176;28;20492;-78
2022/10/08 07:35:42;;;;;;;13.77;2.55;;;11.80;99.90;;;;;;5049145;28;20032;-78
2022/10/08 07:38:08;;;;;;;12.30;2.95;;;11.70;99.90;;;;;;5030239;28;20115;-78
2022/10/08 07:40:34;;;;;;;6.15;1.67;;;11.80;99.90;;;;;;5029236;28;20497;-78
2022/10/08 07:43:01;;;;;;;7.10;1.55;;;11.70;99.90;;;;;;5049940;28;20149;-79
2022/10/08 07:45:26;;;;;;;10.60;2.03;;;11.50;99.90;;;;;;5047904;28;20072;-80
2022/10/08 07:47:52;;;;;;;12.57;2.45;;;11.60;99.90;;;;;;5050567;28;20137;-78
2022/10/08 07:50:18;;;;;;;12.85;2.20;;;11.60;99.90;;;;;;5048027;28;20132;-76
2022/10/08 07:52:43;;;;;;;8.00;2.35;;;11.60;99.90;;;;;;5047757;28;20072;-79
2022/10/08 07:55:09;;;;;;;9.55;2.42;;;12.00;99.90;;;;;;5040434;28;20080;-79
2022/10/08 07:57:35;;;;;;;12.23;1.52;;;12.00;99.90;;;;;;5039174;28;20420;-80
2022/10/08 08:00:00;;;;;;;10.93;2.38;;;11.90;99.90;;;;;;5046289;28;20115;-77
2022/10/08 08:02:26;;;;;;;10.10;2.13;;;12.30;99.90;;;;;;5046691;28;20045;-82
2022/10/08 08:04:52;;;;;;;9.13;1.50;;;12.30;99.90;;;;;;5028506;28;20045;-75
2022/10/08 08:07:17;;;;;;;11.23;1.73;;;12.40;99.90;;;;;;5047556;28;20052;-80
2022/10/08 08:09:43;;;;;;;6.13;1.10;;;12.30;99.90;;;;;;5046414;28;20033;-79
2022/10/08 08:12:08;;;;;;;14.05;1.48;;;12.50;99.90;;;;;;5048416;28;20483;-77
2022/10/08 08:14:34;;;;;;;7.75;1.77;;;12.70;99.90;;;;;;5047454;28;20094;-79
2022/10/08 08:17:00;;;;;;;10.05;2.38;;;12.70;99.90;;;;;;5044120;28;20480;-77
2022/10/08 08:19:26;;;;;;;10.23;2.10;;;13.10;99.90;;;;;;5047208;28;20080;-78
2022/10/08 08:21:52;;;;;;;8.98;1.75;;;13.00;99.90;;;;;;5046251;28;20080;-76
2022/10/08 08:24:17;;;;;;;6.32;2.25;;;13.30;99.90;;;;;;5046572;28;20037;-76
2022/10/08 08:26:43;;;;;;;6.63;1.17;;;13.10;99.90;;;;;;5047866;28;20077;-78
2022/10/08 08:29:11;;;;;;;5.28;1.38;;;13.20;99.90;;;;;;5047210;28;20041;-80
2022/10/08 08:31:42;;;;;;;4.10;1.00;;;13.20;99.90;;;;;;5025162;28;20246;-75
2022/10/08 08:34:12;;;;;;;11.32;2.33;;;13.30;99.90;;;;;;5027955;28;20088;-77
2022/10/08 08:36:39;;;;;;;;;;;13.40;99.90;;;;;;5045147;28;20076;-79
2022/10/08 08:39:06;;;;;;;4.72;1.42;;;13.50;99.90;;;;;;5045307;28;20397;-76
2022/10/08 08:42:01;;;;;;;8.63;2.03;;;13.60;99.90;;;;;;5045681;28;20048;-77
2022/10/08 08:44:42;;;;;;;9.48;1.25;;;13.60;99.90;;;;;;5046307;28;20098;-80
2022/10/08 08:47:26;;;;;;;6.97;0.82;;;13.80;99.90;;;;;;5045023;28;20398;-80
2022/10/08 08:50:18;;;;;;;8.45;1.67;;;14.00;99.90;;;;;;5045127;28;20041;-79
2022/10/08 08:52:44;;;;;;;6.97;1.35;;;13.90;99.90;;;;;;5046112;28;20102;-81
2022/10/08 08:55:18;;;;;;;8.38;1.17;;;13.60;99.90;;;;;;5046943;28;20049;-80
2022/10/08 08:57:54;;;;;;;4.07;0.90;;;13.50;99.90;;;;;;5047724;28;20043;-78
2022/10/08 09:00:22;;;;;;;2.92;0.73;;;13.50;99.90;;;;;;5046467;28;20128;-79
2022/10/08 09:02:54;;;;;;;7.05;1.00;;;13.60;99.90;;;;;;5028699;28;20099;-77
2022/10/08 09:05:23;;;;;;;8.30;2.67;;;13.80;99.90;;;;;;5025960;28;20056;-80
2022/10/08 09:07:56;;;;;;;8.53;1.27;;;13.70;99.90;;;;;;5024422;28;20059;-77
2022/10/08 09:10:31;;;;;;;2.63;0.77;;;13.80;99.90;;;;;;5026163;28;20049;-79
2022/10/08 09:12:58;;;;;;;5.78;1.70;;;13.80;99.90;;;;;;5025888;28;20045;-80
2022/10/08 09:15:33;;;;;;;7.50;0.77;;;13.90;99.90;;;;;;5021908;28;20476;-78
2022/10/08 09:18:02;;;;;;;14.77;2.10;;;14.00;99.90;;;;;;5018768;28;20038;-78
2022/10/08 09:20:28;;;;;;;2.30;1.15;;;14.00;99.90;;;;;;5006472;28;20042;-80
2022/10/08 09:22:55;;;;;;;6.00;0.82;;;14.10;99.90;;;;;;5023996;28;20046;-78
2022/10/08 09:25:23;;;;;;;4.75;1.52;;;14.30;99.90;;;;;;5027488;28;20052;-75
2022/10/08 09:28:05;;;;;;;13.25;2.55;;;14.30;99.90;;;;;;5025999;28;20088;-75
2022/10/08 09:30:43;;;;;;;7.55;1.30;;;14.40;99.90;;;;;;5026706;28;20052;-78
2022/10/08 09:33:15;;;;;;;8.55;1.42;;;14.50;99.90;;;;;;5024975;28;20447;-77
2022/10/08 09:35:47;;;;;;;25.98;2.40;;;14.50;99.90;;;;;;5026895;28;20053;-78
2022/10/08 09:38:23;;;;;;;9.45;1.27;;;14.50;99.90;;;;;;5024748;28;20473;-79
2022/10/08 09:41:15;;;;;;;10.48;1.80;;;14.50;99.90;;;;;;5026059;28;20037;-76
2022/10/08 09:43:40;;;;;;;8.57;0.85;;;14.50;99.90;;;;;;5023318;28;20119;-78
2022/10/08 09:46:25;;;;;;;5.18;1.85;;;14.40;99.90;;;;;;5023538;28;20045;-75
2022/10/08 09:48:51;;;;;;;13.63;3.28;;;14.60;99.90;;;;;;5008021;28;20488;-79
2022/10/08 09:51:17;;;;;;;8.77;1.35;;;14.70;99.90;;;;;;5008517;28;20037;-78
2022/10/08 09:53:45;;;;;;;4.88;1.17;;;14.70;99.90;;;;;;5026257;28;20060;-79
2022/10/08 09:56:12;;;;;;;6.70;0.57;;;14.70;99.90;;;;;;5026601;28;20046;-80
2022/10/08 09:58:57;;;;;;;27.00;2.22;;;14.70;99.90;;;;;;5027225;28;20340;-80
2022/10/08 10:01:26;;;;;;;9.05;2.67;;;14.50;99.90;;;;;;5028041;28;20045;-79
2022/10/08 10:03:56;;;;;;;13.63;0.93;;;14.40;99.90;;;;;;5028404;28;20053;-79
2022/10/08 10:06:28;;;;;;;5.03;1.17;;;14.40;99.90;;;;;;5045532;28;20060;-77
2022/10/08 10:09:00;;;;;;;6.78;1.83;;;14.70;99.90;;;;;;5049586;28;20427;-77
2022/10/08 10:11:35;;;;;;;6.22;1.10;;;14.80;99.90;;;;;;5049398;28;20091;-80
2022/10/08 10:14:19;;;;;;;5.57;1.42;;;15.00;99.90;;;;;;5030135;28;20053;-80
2022/10/08 10:16:48;;;;;;;8.63;1.15;;;15.10;99.90;;;;;;5038041;28;20044;-79
2022/10/08 10:19:19;;;;;;;6.28;0.98;;;15.00;99.90;;;;;;5050141;28;20055;-77
2022/10/08 10:22:13;;;;;;;3.20;0.88;;;15.10;99.90;;;;;;5048876;28;20073;-79
2022/10/08 10:24:54;;;;;;;7.00;1.23;;;15.10;99.90;;;;;;5005744;28;20059;-78
2022/10/08 10:27:33;;;;;;;7.45;1.25;;;15.10;99.90;;;;;;5048343;28;20095;-77
2022/10/08 10:30:22;;;;;;;8.25;1.77;;;15.20;99.90;;;;;;5044689;28;20041;-80
2022/10/08 10:33:03;;;;;;;6.82;1.00;;;15.20;99.90;;;;;;5016482;28;20051;-78
2022/10/08 10:35:31;;;;;;;15.40;2.67;;;15.20;99.90;;;;;;5031401;28;20099;-79
2022/10/08 10:38:12;;;;;;;10.50;1.15;;;15.20;99.90;;;;;;5043598;28;20470;-78
2022/10/08 10:40:51;;;;;;;13.05;1.70;;;15.40;99.90;;;;;;5049360;28;20051;-81
2022/10/08 10:43:36;;;;;;;4.88;1.00;;;15.30;99.90;;;;;;5049138;28;20041;-80
2022/10/08 10:46:17;;;;;;;6.35;1.00;;;15.40;99.90;;;;;;5049422;28;20084;-81
2022/10/08 10:48:43;;;;;;;7.20;1.90;;;15.50;99.90;;;;;;5028083;28;20160;-81
2022/10/08 10:51:33;;;;;;;12.35;2.00;;;15.60;99.90;;;;;;4996749;28;20041;-79
2022/10/08 10:54:18;;;;;;;10.02;2.20;;;15.60;99.90;;;;;;5049914;28;20045;-79
2022/10/08 10:56:52;;;;;;;5.30;1.02;;;15.70;99.90;;;;;;5051626;28;20043;-82
2022/10/08 10:59:27;;;;;;;5.55;1.17;;;15.40;99.90;;;;;;5047701;28;20125;-81
2022/10/08 11:02:09;;;;;;;8.25;1.73;;;15.10;99.90;;;;;;5047168;28;20045;-78
2022/10/08 11:04:54;;;;;;;6.65;1.52;;;14.90;99.90;;;;;;5048845;28;20080;-81
2022/10/08 11:07:23;;;;;;;7.32;1.70;;;14.70;99.90;;;;;;5047654;28;20128;-79
2022/10/08 11:10:16;;;;;;;6.50;1.27;;;14.70;99.90;;;;;;5014635;28;20056;-76
2022/10/08 11:13:20;;;;;;;16.63;1.25;;;14.80;99.90;;;;;;5049994;28;20052;-81
2022/10/08 11:16:04;;;;;;;10.35;2.28;;;15.10;99.90;;;;;;5016978;28;20053;-79
2022/10/08 11:18:56;;;;;;;10.40;1.10;;;15.20;99.90;;;;;;5048068;28;20488;-80
2022/10/08 11:21:39;;;;;;;5.65;1.35;;;15.30;99.90;;;;;;5053514;28;20107;-79
2022/10/08 11:24:26;;;;;;;9.05;2.28;;;15.30;99.90;;;;;;5037845;28;20101;-81
2022/10/08 11:27:04;;;;;;;11.40;2.10;;;15.40;99.90;;;;;;5052121;28;20052;-82
2022/10/08 11:29:45;;;;;;;6.88;1.83;;;15.60;99.90;;;;;;5048000;28;20087;-80
2022/10/08 11:32:14;;;;;;;8.93;1.35;;;15.70;99.90;;;;;;5050097;28;20071;-80
2022/10/08 11:34:47;;;;;;;10.20;1.83;;;15.70;99.90;;;;;;5047329;28;20438;-78
2022/10/08 11:38:00;;;;;;;9.57;1.95;;;15.80;99.90;;;;;;5030255;28;20087;-79
2022/10/08 11:40:45;;;;;;;7.82;2.38;;;15.50;99.90;;;;;;5005847;28;20045;-77
2022/10/08 11:43:35;;;;;;;5.88;1.75;;;15.40;99.90;;;;;;5046748;28;21630;-78
2022/10/08 11:46:19;;;;;;;;;;;15.50;99.90;;;;;;5024370;28;20522;-79
2022/10/08 11:48:46;;;;;;;4.28;1.20;;;15.60;99.90;;;;;;5042782;28;20382;-80
2022/10/08 11:51:20;;;;;;;10.82;1.40;;;15.70;99.90;;;;;;5051072;28;20052;-82
2022/10/08 11:54:06;;;;;;;6.85;1.73;;;15.60;99.90;;;;;;5035252;28;20447;-80
2022/10/08 11:56:34;;;;;;;8.68;1.33;;;15.50;99.90;;;;;;5036654;28;20132;-84
2022/10/08 11:59:08;;;;;;;6.50;0.80;;;15.60;99.90;;;;;;5049701;28;20054;-81
2022/10/08 12:01:52;;;;;;;6.07;1.80;;;15.80;99.90;;;;;;5041513;28;20033;-83
2022/10/08 12:04:21;;;;;;;6.82;1.25;;;15.60;99.90;;;;;;5050130;28;20055;-84
2022/10/08 12:07:20;;;;;;;10.10;1.93;;;15.60;99.90;;;;;;5049933;28;20053;-83
2022/10/08 12:10:04;;;;;;;5.15;0.90;;;15.60;99.90;;;;;;5030278;28;20060;-78
2022/10/08 12:12:49;;;;;;;6.68;1.60;;;15.80;99.90;;;;;;5017984;28;20040;-82
2022/10/08 12:15:28;;;;;;;12.88;1.98;;;15.70;99.90;;;;;;5031068;28;20136;-81
2022/10/08 12:18:09;;;;;;;5.45;1.35;;;15.90;99.90;;;;;;5048661;28;20049;-81
2022/10/08 12:20:38;;;;;;;8.90;1.30;;;15.70;99.90;;;;;;5048303;28;20080;-81
2022/10/08 12:23:08;;;;;;;10.00;1.63;;;15.90;99.90;;;;;;5043385;28;20083;-82
2022/10/08 12:25:48;;;;;;;6.10;1.00;;;16.00;99.90;;;;;;5051510;28;20037;-82
2022/10/08 12:28:19;;;;;;;7.47;1.42;;;16.10;99.90;;;;;;5050587;28;20075;-83
2022/10/08 12:30:46;;;;;;;10.50;1.40;;;15.50;99.90;;;;;;5049736;28;20124;-82
2022/10/08 12:33:12;;;;;;;8.25;1.17;;;15.30;99.90;;;;;;5016075;28;20055;-83
2022/10/08 12:36:10;;;;;;;5.65;1.38;;;15.30;99.90;;;;;;5050320;28;20123;-80
2022/10/08 12:38:53;;;;;;;6.63;1.20;;;15.50;99.90;;;;;;4996560;28;20808;-81
2022/10/08 12:41:31;;;;;;;5.88;1.13;;;15.40;99.90;;;;;;5010160;28;20191;-81
2022/10/08 12:44:25;;;;;;;10.07;2.00;;;15.60;99.90;;;;;;5026570;28;20729;-78
2022/10/08 12:46:59;;;;;;;13.20;2.40;;;15.80;99.90;;;;;;5038236;28;20513;-77
2022/10/08 12:49:40;;;;;;;4.25;1.10;;;16.00;99.90;;;;;;5040462;28;20037;-79
2022/10/08 12:52:14;;;;;;;8.98;1.25;;;15.60;99.90;;;;;;5041760;28;20372;-80
2022/10/08 12:54:45;;;;;;;6.30;1.52;;;15.20;99.90;;;;;;5035626;28;20411;-79
2022/10/08 12:57:19;;;;;;;9.75;2.25;;;14.80;99.90;;;;;;5042299;28;20059;-80
2022/10/08 12:59:45;;;;;;;5.93;1.65;;;14.60;99.90;;;;;;5026564;28;20045;-78
2022/10/08 13:02:42;;;;;;;4.40;0.90;;;14.50;99.90;;;;;;5040796;28;20052;-79
2022/10/08 13:05:32;;;;;;;4.63;1.13;;;14.40;99.90;;;;;;5024899;28;20102;-85
2022/10/08 13:07:58;;;;;;;3.88;1.08;;;14.40;99.90;;;;;;5037520;28;20411;-85